首页
METAR-TAF:

METAR-TAF

机场 :

Great Bend Municipal Airport

Great Bend, 堪薩斯州, 美国

纬度: 38-21N, 经度: 098-52W, 海拔: 575米

当前天气观测

该预报发布于24分钟前的11:56 UTC
风速6节,风向南转西南
温度 -7°C
湿度 86%
气压 1026 hPa
能見度: 16.1公里
天空无云

METAR: KGBD 111156Z AUTO 21006KT 10SM CLR M07/M09 A3029 RMK AO2 SLP280 T10721094 11067 21094 55006 FZRANO

时间: 06:20 (12:20 UTC)

预报

该预报发布于59分钟前的11:21 UTC
预报有效从11日的 12点(UTC)到 12日的 12点(UTC)
风速8节,风向西南
能見度: 10公里
天空无云
从 11日的 2100点(UTC)
风速16节,风向,有时为24节阵风
能見度: 10公里
散云层高于25000英尺
从 12日的 0200点(UTC)
风速17节,风向,有时为24节阵风
能見度: 10公里
多云层高于25000英尺
从 12日的 0900点(UTC)
风速15节,风向,有时为23节阵风
能見度: 10公里
散云层高于4000英尺
多云层高于25000英尺

TAF: KGBD 111121Z 1112/1212 22008KT P6SM SKC FM112100 17016G24KT P6SM SCT250 FM120200 17017G24KT P6SM BKN250 WS020/20045KT FM120900 19015G23KT P6SM SCT040 BKN250

超过4000个机场的气象观测和天气预报(METAR&TAF报告)。

可查询的气象台以黄色和红色小点在地图上表示。

将鼠标移到小点上方,可查看气象台名称。

然后点击查看天气观测和预报。

如需切换地图:点击带黑十字的绿色按钮放大地图;点击带横线的绿色按钮缩小地图;或者点击绿色箭头查看邻近地区的地图。


METAR-TAF: